createdAt,value
2018-04-02T00:00:28.926Z,36.40
2018-04-02T00:02:59.132Z,36.47
2018-04-02T00:05:28.591Z,38.87
2018-04-02T00:07:58.813Z,38.50
2018-04-02T00:10:29.035Z,38.27
2018-04-02T00:12:58.476Z,41.80
2018-04-02T00:15:27.933Z,41.87
2018-04-02T00:17:57.387Z,39.03
2018-04-02T00:20:27.602Z,42.37
2018-04-02T00:22:57.267Z,41.10
2018-04-02T00:25:26.705Z,32.13
2018-04-02T00:27:56.154Z,42.00
2018-04-02T00:30:25.908Z,37.67
2018-04-02T00:32:56.129Z,37.90
2018-04-02T00:35:25.692Z,39.53
2018-04-02T00:37:55.349Z,42.03
2018-04-02T00:40:24.804Z,40.60
2018-04-02T00:42:54.271Z,41.10
2018-04-02T00:45:26.673Z,41.37
2018-04-02T00:47:56.324Z,38.30
2018-04-02T00:50:26.540Z,39.80
2018-04-02T00:52:55.708Z,36.77
2018-04-02T00:55:25.323Z,35.90
2018-04-02T00:57:54.732Z,38.13
2018-04-02T01:00:24.197Z,37.63
2018-04-02T01:02:53.640Z,41.37
2018-04-02T01:05:23.223Z,40.20
2018-04-02T01:07:52.848Z,39.30
2018-04-02T01:10:22.292Z,39.93
2018-04-02T01:12:51.736Z,41.43
2018-04-02T01:15:21.208Z,39.63
2018-04-02T01:17:51.420Z,43.20
2018-04-02T01:20:22.385Z,40.30
2018-04-02T01:22:51.831Z,43.20
2018-04-02T01:25:21.284Z,38.83
2018-04-02T01:27:50.741Z,42.20
2018-04-02T01:30:20.952Z,38.27
2018-04-02T01:32:50.408Z,42.30
2018-04-02T01:35:19.856Z,41.67
2018-04-02T01:37:49.322Z,38.93
2018-04-02T01:40:18.965Z,39.10
2018-04-02T01:42:48.415Z,42.17
2018-04-02T01:45:17.861Z,41.00
2018-04-02T01:47:47.328Z,45.37
2018-04-02T01:50:16.786Z,45.10
2018-04-02T01:52:46.401Z,41.23
2018-04-02T01:55:15.856Z,41.97
2018-04-02T01:57:45.842Z,42.70
2018-04-02T02:00:15.286Z,38.60
2018-04-02T02:02:45.276Z,40.77
2018-04-02T02:05:14.730Z,36.20
2018-04-02T02:07:44.952Z,39.70
2018-04-02T02:10:14.397Z,43.57
2018-04-02T02:12:44.603Z,47.60
2018-04-02T02:15:14.067Z,44.90
2018-04-02T02:17:43.514Z,43.40
2018-04-02T02:20:12.752Z,45.37
2018-04-02T02:22:41.984Z,40.73
2018-04-02T02:25:12.207Z,39.07
2018-04-02T02:27:42.436Z,33.17
2018-04-02T02:30:12.662Z,37.17
2018-04-02T02:32:42.126Z,37.10
2018-04-02T02:35:11.584Z,42.23
2018-04-02T02:37:41.054Z,41.63
2018-04-02T02:40:10.682Z,42.67
2018-04-02T02:42:40.146Z,43.07
2018-04-02T02:45:09.564Z,39.80
2018-04-02T02:47:40.305Z,38.73
2018-04-02T02:50:09.763Z,40.23
2018-04-02T02:52:39.197Z,42.10
2018-04-02T02:55:08.652Z,41.13
2018-04-02T02:57:38.091Z,44.53
2018-04-02T03:00:08.353Z,41.60
2018-04-02T03:02:37.788Z,44.03
2018-04-02T03:05:07.262Z,41.77
2018-04-02T03:07:37.688Z,41.70
2018-04-02T03:10:07.897Z,43.63
2018-04-02T03:12:37.030Z,40.20
2018-04-02T03:15:06.471Z,45.17
2018-04-02T03:17:35.916Z,47.27
2018-04-02T03:20:05.458Z,47.93
2018-04-02T03:22:34.920Z,48.40
2018-04-02T03:25:04.364Z,43.93
2018-04-02T03:27:33.825Z,43.87
2018-04-02T03:30:03.381Z,45.87
2018-04-02T03:32:32.823Z,45.17
2018-04-02T03:35:02.277Z,47.53
2018-04-02T03:37:31.904Z,46.20
2018-04-02T03:40:03.312Z,45.63
2018-04-02T03:42:32.740Z,45.10
2018-04-02T03:45:02.202Z,43.40
2018-04-02T03:47:32.432Z,48.53
2018-04-02T03:50:02.691Z,46.67
2018-04-02T03:52:32.152Z,41.17
2018-04-02T03:55:01.598Z,51.50
2018-04-02T03:57:31.812Z,46.93
2018-04-02T04:00:01.258Z,57.00
2018-04-02T04:02:31.466Z,53.33
2018-04-02T04:05:00.924Z,53.93
2018-04-02T04:07:30.363Z,51.50
2018-04-02T04:09:59.818Z,56.50
2018-04-02T04:12:29.003Z,53.50
2018-04-02T04:14:58.452Z,52.93
2018-04-02T04:17:28.666Z,50.63
2018-04-02T04:19:58.129Z,48.63
2018-04-02T04:22:27.594Z,52.53
2018-04-02T04:24:56.797Z,53.03
2018-04-02T04:27:26.457Z,53.20
2018-04-02T04:29:56.672Z,56.43
2018-04-02T04:32:26.131Z,53.87
2018-04-02T04:34:55.577Z,52.37
2018-04-02T04:37:25.037Z,54.27
2018-04-02T04:39:55.260Z,49.60
2018-04-02T04:42:25.565Z,55.17
2018-04-02T04:44:55.018Z,56.00
2018-04-02T04:47:25.301Z,56.37
2018-04-02T04:49:54.972Z,55.10
2018-04-02T04:52:24.149Z,48.00
2018-04-02T04:54:53.604Z,55.47
2018-04-02T04:57:23.732Z,56.03
2018-04-02T04:59:53.951Z,55.10
2018-04-02T05:02:23.178Z,56.40
2018-04-02T05:04:53.387Z,58.93
2018-04-02T05:07:22.850Z,59.77
2018-04-02T05:09:52.291Z,61.60
2018-04-02T05:12:21.750Z,63.93
2018-04-02T05:14:51.413Z,62.83
2018-04-02T05:17:20.849Z,66.43
2018-04-02T05:19:50.293Z,69.23
2018-04-02T05:22:20.517Z,68.40
2018-04-02T05:24:49.738Z,69.43
2018-04-02T05:27:19.176Z,71.20
2018-04-02T05:29:49.411Z,61.20
2018-04-02T05:32:18.849Z,68.07
2018-04-02T05:34:48.296Z,64.87
2018-04-02T05:37:17.777Z,64.87
2018-04-02T05:39:47.232Z,63.87
2018-04-02T05:42:16.897Z,64.70
2018-04-02T05:44:47.113Z,65.83
2018-04-02T05:47:16.556Z,64.83
2018-04-02T05:49:46.776Z,65.50
2018-04-02T05:52:16.989Z,64.43
2018-04-02T05:54:47.225Z,65.60
2018-04-02T05:57:16.677Z,64.87
2018-04-02T05:59:46.170Z,65.73
2018-04-02T06:02:15.788Z,61.83
2018-04-02T06:04:45.366Z,64.73
2018-04-02T06:07:14.788Z,58.53
2018-04-02T06:09:44.276Z,61.67
2018-04-02T06:12:13.730Z,62.97
2018-04-02T06:14:43.439Z,57.50
2018-04-02T06:17:13.030Z,56.27
2018-04-02T06:19:42.882Z,62.83
2018-04-02T06:22:12.324Z,58.73
2018-04-02T06:24:41.793Z,59.53
2018-04-02T06:27:11.267Z,62.20
2018-04-02T06:29:40.731Z,57.17
2018-04-02T06:32:10.226Z,53.57
2018-04-02T06:34:41.974Z,58.93
2018-04-02T06:37:11.370Z,57.47
2018-04-02T06:39:41.012Z,52.23
2018-04-02T06:42:10.606Z,61.50
2018-04-02T06:44:40.057Z,50.67
2018-04-02T06:47:10.300Z,53.80
2018-04-02T06:49:40.523Z,58.93
2018-04-02T06:52:10.066Z,53.67
2018-04-02T06:54:39.594Z,59.80
2018-04-02T06:57:09.057Z,60.03
2018-04-02T06:59:38.984Z,60.30
2018-04-02T07:02:09.405Z,61.33
2018-04-02T07:04:38.844Z,65.50
2018-04-02T07:07:08.352Z,61.17
2018-04-02T07:09:37.821Z,63.67
2018-04-02T07:12:07.421Z,63.37
2018-04-02T07:14:37.633Z,56.63
2018-04-02T07:17:07.774Z,59.30
2018-04-02T07:19:37.773Z,55.33
2018-04-02T07:22:07.293Z,62.63
2018-04-02T07:24:36.802Z,61.63
2018-04-02T07:27:06.314Z,63.37
2018-04-02T07:29:35.772Z,62.83
2018-04-02T07:32:06.057Z,55.77
2018-04-02T07:34:35.853Z,52.40
2018-04-02T07:37:05.286Z,52.10
2018-04-02T07:39:34.730Z,62.03
2018-04-02T07:42:04.190Z,54.90
2018-04-02T07:44:34.402Z,55.70
2018-04-02T07:47:04.167Z,54.57
2018-04-02T07:49:33.421Z,50.60
2018-04-02T07:52:02.887Z,51.80
2018-04-02T07:54:32.344Z,51.00
2018-04-02T07:57:01.827Z,48.30
2018-04-02T07:59:31.270Z,49.50
2018-04-02T08:02:00.882Z,50.40
2018-04-02T08:04:30.396Z,51.33
2018-04-02T08:06:59.853Z,50.60
2018-04-02T08:09:29.332Z,48.80
2018-04-02T08:11:58.771Z,46.50
2018-04-02T08:14:28.230Z,42.37
2018-04-02T08:16:58.215Z,39.77
2018-04-02T08:19:27.684Z,45.73
2018-04-02T08:21:57.211Z,44.20
2018-04-02T08:24:26.864Z,45.00
2018-04-02T08:26:56.320Z,36.07
2018-04-02T08:29:26.560Z,36.67
2018-04-02T08:31:56.768Z,37.73
2018-04-02T08:34:27.004Z,38.10
2018-04-02T08:36:56.229Z,36.40
2018-04-02T08:39:26.233Z,35.90
2018-04-02T08:41:55.695Z,33.23
2018-04-02T08:44:25.281Z,32.87
2018-04-02T08:46:54.588Z,34.13
2018-04-02T08:49:24.067Z,34.03
2018-04-02T08:51:53.528Z,30.07
2018-04-02T08:54:22.985Z,28.17
2018-04-02T08:56:52.229Z,27.63
2018-04-02T08:59:21.684Z,27.93
2018-04-02T09:01:51.920Z,27.10
2018-04-02T09:04:22.152Z,26.97
2018-04-02T09:06:52.391Z,26.33
2018-04-02T09:09:22.619Z,25.50
2018-04-02T09:11:52.073Z,27.33
2018-04-02T09:14:21.532Z,24.03
2018-04-02T09:16:51.119Z,23.90
2018-04-02T09:19:20.584Z,26.53
2018-04-02T09:21:50.216Z,24.83
2018-04-02T09:24:19.698Z,24.37
2018-04-02T09:26:49.979Z,21.83
2018-04-02T09:29:19.479Z,25.07
2018-04-02T09:31:49.708Z,24.87
2018-04-02T09:34:19.734Z,26.00
2018-04-02T09:36:49.181Z,21.57
2018-04-02T09:39:18.635Z,23.20
2018-04-02T09:41:47.923Z,22.23
2018-04-02T09:44:17.394Z,21.17
2018-04-02T09:46:46.844Z,29.67
2018-04-02T09:49:16.936Z,24.30
2018-04-02T09:51:46.386Z,22.47
2018-04-02T09:54:15.903Z,23.80
2018-04-02T09:56:45.302Z,19.37
2018-04-02T09:59:14.767Z,20.50
2018-04-02T10:01:44.488Z,19.60
2018-04-02T10:04:14.638Z,21.47
2018-04-02T10:06:44.242Z,20.57
2018-04-02T10:09:13.675Z,20.07
2018-04-02T10:11:43.334Z,21.93
2018-04-02T10:14:13.552Z,20.63
2018-04-02T10:16:43.803Z,19.67
2018-04-02T10:19:14.037Z,21.40
2018-04-02T10:21:44.580Z,20.40
2018-04-02T10:24:14.206Z,20.63
2018-04-02T10:26:43.712Z,20.33
2018-04-02T10:29:14.006Z,19.23
2018-04-02T10:31:44.065Z,17.73
2018-04-02T10:34:13.540Z,15.67
2018-04-02T10:36:43.024Z,18.43
2018-04-02T10:39:13.318Z,17.20
2018-04-02T10:41:42.908Z,16.03
2018-04-02T10:44:12.364Z,14.27
2018-04-02T10:46:42.607Z,16.80
2018-04-02T10:49:12.132Z,14.80
2018-04-02T10:51:42.783Z,14.77
2018-04-02T10:54:12.577Z,14.03
2018-04-02T10:56:42.029Z,14.90
2018-04-02T10:59:12.569Z,11.90
2018-04-02T11:01:42.894Z,14.60
2018-04-02T11:04:13.339Z,12.17
2018-04-02T11:06:43.616Z,14.13
2018-04-02T11:09:13.122Z,12.67
2018-04-02T11:11:42.600Z,15.33
2018-04-02T11:14:12.866Z,13.00
2018-04-02T11:16:42.674Z,13.00
2018-04-02T11:19:12.955Z,13.53
2018-04-02T11:21:42.514Z,10.37
2018-04-02T11:24:12.880Z,11.97
2018-04-02T11:26:42.485Z,11.17
2018-04-02T11:29:13.633Z,12.77
2018-04-02T11:31:44.029Z,10.17
2018-04-02T11:34:13.501Z,8.40
2018-04-02T11:36:43.761Z,10.40
2018-04-02T11:39:13.360Z,10.00
2018-04-02T11:41:43.836Z,7.90
2018-04-02T11:44:13.298Z,9.50
2018-04-02T11:46:43.695Z,8.77
2018-04-02T11:49:13.205Z,8.63
2018-04-02T11:51:42.647Z,8.93
2018-04-02T11:54:12.123Z,9.57
2018-04-02T11:56:41.591Z,8.63
2018-04-02T11:59:11.036Z,9.90
2018-04-02T12:01:40.266Z,10.37
2018-04-02T12:04:09.721Z,9.43
2018-04-02T12:06:39.172Z,9.43
2018-04-02T12:09:09.400Z,9.63
2018-04-02T12:11:39.620Z,8.17
2018-04-02T12:14:09.081Z,8.10
2018-04-02T12:16:38.528Z,8.73
2018-04-02T12:19:07.975Z,7.60
2018-04-02T12:21:38.621Z,8.07
2018-04-02T12:24:09.036Z,6.83
2018-04-02T12:26:38.684Z,9.57
2018-04-02T12:29:08.893Z,6.93
2018-04-02T12:31:38.748Z,7.83
2018-04-02T12:34:08.957Z,7.13
2018-04-02T12:36:38.408Z,6.90
2018-04-02T12:39:07.882Z,7.03
2018-04-02T12:41:37.323Z,8.33
2018-04-02T12:44:07.545Z,6.47
2018-04-02T12:46:36.998Z,8.83
2018-04-02T12:49:06.435Z,7.03
2018-04-02T12:51:35.670Z,7.63
2018-04-02T12:54:05.143Z,8.70
2018-04-02T12:56:34.580Z,9.00
2018-04-02T12:59:04.046Z,7.00
2018-04-02T13:01:34.469Z,6.47
2018-04-02T13:04:04.021Z,8.77
2018-04-02T13:06:34.217Z,6.30
2018-04-02T13:09:03.371Z,8.50
2018-04-02T13:11:33.577Z,7.07
2018-04-02T13:14:03.020Z,6.97
2018-04-02T13:16:32.464Z,8.17
2018-04-02T13:19:01.999Z,6.97
2018-04-02T13:21:31.462Z,7.17
2018-04-02T13:24:00.901Z,5.63
2018-04-02T13:26:30.366Z,5.70
2018-04-02T13:28:59.952Z,5.10
2018-04-02T13:31:29.472Z,5.27
2018-04-02T13:33:59.985Z,5.77
2018-04-02T13:36:29.438Z,4.80
2018-04-02T13:38:59.055Z,4.93
2018-04-02T13:41:28.528Z,5.50
2018-04-02T13:43:58.764Z,6.53
2018-04-02T13:46:28.246Z,4.93
2018-04-02T13:48:57.733Z,4.57
2018-04-02T13:51:27.298Z,5.20
2018-04-02T13:53:57.528Z,3.93
2018-04-02T13:56:27.891Z,4.87
2018-04-02T13:58:57.432Z,5.23
2018-04-02T14:01:26.876Z,5.33
2018-04-02T14:03:56.320Z,3.97
2018-04-02T14:06:25.775Z,4.33
2018-04-02T14:08:55.224Z,5.80
2018-04-02T14:11:24.665Z,3.70
2018-04-02T14:13:54.164Z,3.67
2018-04-02T14:16:23.664Z,4.67
2018-04-02T14:18:53.117Z,3.93
2018-04-02T14:21:22.571Z,3.43
2018-04-02T14:23:52.103Z,3.93
2018-04-02T14:26:21.534Z,4.93
2018-04-02T14:28:50.980Z,3.73
2018-04-02T14:31:21.192Z,3.20
2018-04-02T14:33:50.634Z,5.03
2018-04-02T14:36:20.653Z,3.87
2018-04-02T14:38:50.077Z,5.17
2018-04-02T14:41:20.525Z,4.70
2018-04-02T14:43:50.739Z,3.77
2018-04-02T14:46:20.278Z,4.33
2018-04-02T14:48:50.489Z,3.30
2018-04-02T14:51:19.958Z,4.00
2018-04-02T14:53:49.431Z,4.00
2018-04-02T14:56:18.903Z,3.20
2018-04-02T14:58:48.792Z,7.17
2018-04-02T15:01:18.256Z,3.33
2018-04-02T15:03:47.696Z,3.63
2018-04-02T15:06:17.163Z,3.27
2018-04-02T15:08:46.598Z,3.03
2018-04-02T15:11:16.065Z,5.10
2018-04-02T15:13:46.378Z,3.40
2018-04-02T15:16:15.831Z,3.67
2018-04-02T15:18:45.294Z,3.77
2018-04-02T15:21:14.769Z,4.07
2018-04-02T15:23:44.233Z,3.83
2018-04-02T15:26:13.833Z,3.07
2018-04-02T15:28:43.305Z,3.70
2018-04-02T15:31:14.536Z,4.40
2018-04-02T15:33:45.576Z,2.97
2018-04-02T15:36:15.036Z,3.03
2018-04-02T15:38:44.673Z,4.17
2018-04-02T15:41:14.372Z,3.00
2018-04-02T15:43:44.693Z,4.50
2018-04-02T15:46:14.411Z,2.87
2018-04-02T15:48:43.995Z,4.50
2018-04-02T15:51:13.216Z,3.67
2018-04-02T15:53:42.900Z,3.20
2018-04-02T15:56:12.382Z,4.67
2018-04-02T15:58:42.033Z,4.63
2018-04-02T16:01:11.505Z,3.07
2018-04-02T16:03:42.530Z,3.10
2018-04-02T16:06:12.002Z,3.87
2018-04-02T16:08:42.257Z,2.20
2018-04-02T16:11:12.480Z,2.97
2018-04-02T16:13:42.746Z,4.53
2018-04-02T16:16:12.245Z,2.87
2018-04-02T16:18:42.671Z,3.47
2018-04-02T16:21:12.165Z,4.20
2018-04-02T16:23:41.658Z,3.90
2018-04-02T16:26:11.322Z,3.40
2018-04-02T16:28:41.556Z,8.33
2018-04-02T16:31:11.098Z,4.13
2018-04-02T16:33:40.571Z,4.50
2018-04-02T16:36:10.037Z,5.50
2018-04-02T16:38:39.216Z,4.07
2018-04-02T16:41:09.665Z,3.67
2018-04-02T16:43:38.892Z,3.90
2018-04-02T16:46:08.013Z,4.73
2018-04-02T16:48:37.472Z,4.20
2018-04-02T16:51:07.042Z,4.37
2018-04-02T16:53:36.505Z,4.70
2018-04-02T16:56:06.113Z,4.60
2018-04-02T16:58:35.398Z,3.50
2018-04-02T17:01:04.836Z,3.43
2018-04-02T17:03:34.285Z,5.00
2018-04-02T17:06:04.505Z,4.60
2018-04-02T17:08:34.050Z,3.20
2018-04-02T17:11:04.266Z,3.10
2018-04-02T17:13:33.735Z,3.07
2018-04-02T17:16:03.404Z,3.57
2018-04-02T17:18:32.845Z,4.30
2018-04-02T17:21:02.325Z,2.83
2018-04-02T17:23:31.814Z,3.43
2018-04-02T17:26:01.041Z,4.47
2018-04-02T17:28:30.533Z,2.83
2018-04-02T17:30:59.948Z,3.93
2018-04-02T17:33:29.400Z,2.77
2018-04-02T17:35:58.971Z,4.27
2018-04-02T17:38:28.550Z,2.87
2018-04-02T17:40:58.807Z,3.53
2018-04-02T17:43:29.147Z,3.47
2018-04-02T17:45:59.404Z,4.23
2018-04-02T17:48:28.926Z,2.90
2018-04-02T17:50:58.366Z,4.37
2018-04-02T17:53:27.840Z,2.40
2018-04-02T17:55:57.344Z,6.67
2018-04-02T17:58:26.949Z,2.73
2018-04-02T18:00:56.971Z,3.70
2018-04-02T18:03:26.428Z,2.77
2018-04-02T18:05:55.876Z,2.53
2018-04-02T18:08:25.536Z,4.40
2018-04-02T18:10:55.757Z,4.27
2018-04-02T18:13:26.044Z,3.33
2018-04-02T18:15:55.506Z,4.00
2018-04-02T18:18:25.734Z,3.23
2018-04-02T18:20:56.726Z,4.20
2018-04-02T18:23:26.514Z,3.17
2018-04-02T18:25:56.829Z,3.23
2018-04-02T18:28:26.288Z,3.40
2018-04-02T18:30:55.756Z,4.43
2018-04-02T18:33:25.666Z,3.37
2018-04-02T18:35:55.099Z,5.20
2018-04-02T18:38:24.744Z,6.27
2018-04-02T18:40:54.241Z,5.20
2018-04-02T18:43:23.470Z,4.70
2018-04-02T18:45:53.676Z,4.50
2018-04-02T18:48:23.364Z,4.70
2018-04-02T18:50:53.563Z,6.63
2018-04-02T18:53:23.275Z,4.30
2018-04-02T18:55:52.721Z,3.67
2018-04-02T18:58:22.957Z,3.87
2018-04-02T19:00:53.169Z,4.93
2018-04-02T19:03:23.668Z,3.50
2018-04-02T19:05:52.885Z,3.77
2018-04-02T19:08:22.525Z,4.03
2018-04-02T19:10:52.006Z,4.10
2018-04-02T19:13:21.232Z,4.50
2018-04-02T19:15:50.680Z,3.77
2018-04-02T19:18:20.144Z,4.83
2018-04-02T19:20:49.603Z,3.77
2018-04-02T19:23:19.085Z,5.03
2018-04-02T19:25:48.548Z,4.27
2018-04-02T19:28:17.984Z,3.90
2018-04-02T19:30:48.329Z,3.80
2018-04-02T19:33:17.904Z,4.23
2018-04-02T19:35:47.393Z,7.60
2018-04-02T19:38:16.859Z,6.33
2018-04-02T19:40:46.316Z,4.87
2018-04-02T19:43:15.846Z,5.00
2018-04-02T19:45:45.328Z,3.90
2018-04-02T19:48:15.540Z,4.23
2018-04-02T19:50:45.171Z,4.37
2018-04-02T19:53:15.520Z,4.20
2018-04-02T19:55:45.265Z,4.13
2018-04-02T19:58:15.461Z,6.10
2018-04-02T20:00:45.861Z,5.13
2018-04-02T20:03:15.310Z,4.77
2018-04-02T20:05:44.834Z,6.73
2018-04-02T20:08:14.836Z,4.50
2018-04-02T20:10:45.821Z,5.67
2018-04-02T20:13:16.072Z,4.37
2018-04-02T20:15:45.689Z,4.87
2018-04-02T20:18:15.164Z,4.60
2018-04-02T20:20:44.618Z,4.03
2018-04-02T20:23:16.960Z,5.67
2018-04-02T20:25:46.920Z,4.30
2018-04-02T20:28:17.152Z,4.33
2018-04-02T20:30:47.590Z,3.80
2018-04-02T20:33:17.797Z,5.73
2018-04-02T20:35:47.452Z,5.03
2018-04-02T20:38:16.618Z,4.40
2018-04-02T20:40:46.120Z,3.77
2018-04-02T20:43:15.594Z,4.13
2018-04-02T20:45:45.268Z,6.57
2018-04-02T20:48:14.717Z,5.07
2018-04-02T20:50:44.962Z,3.97
2018-04-02T20:53:15.171Z,4.37
2018-04-02T20:55:44.628Z,4.10
2018-04-02T20:58:14.110Z,4.47
2018-04-02T21:00:43.683Z,4.03
2018-04-02T21:03:12.956Z,4.07
2018-04-02T21:05:42.499Z,4.40
2018-04-02T21:08:11.961Z,5.47
2018-04-02T21:10:41.423Z,5.10
2018-04-02T21:13:10.898Z,5.30
2018-04-02T21:15:40.348Z,5.00
2018-04-02T21:18:09.794Z,5.20
2018-04-02T21:20:39.277Z,5.27
2018-04-02T21:23:09.507Z,3.97
2018-04-02T21:25:39.778Z,5.63
2018-04-02T21:28:09.225Z,4.47
2018-04-02T21:30:38.689Z,3.67
2018-04-02T21:33:08.140Z,4.10
2018-04-02T21:35:37.600Z,4.40
2018-04-02T21:38:07.812Z,4.30
2018-04-02T21:40:37.264Z,4.30
2018-04-02T21:43:06.714Z,3.30
2018-04-02T21:45:36.237Z,3.90
2018-04-02T21:48:05.476Z,3.53
2018-04-02T21:50:34.923Z,5.13
2018-04-02T21:53:04.386Z,5.90
2018-04-02T21:55:33.828Z,3.63
2018-04-02T21:58:04.807Z,7.20
2018-04-02T22:00:35.020Z,4.57
2018-04-02T22:03:04.498Z,4.47
2018-04-02T22:05:33.945Z,3.97
2018-04-02T22:08:10.298Z,3.83
2018-04-02T22:10:39.710Z,4.83
2018-04-02T22:13:08.924Z,4.10
2018-04-02T22:15:38.493Z,4.57
2018-04-02T22:18:08.696Z,3.97
2018-04-02T22:20:38.156Z,3.80
2018-04-02T22:23:07.617Z,4.77
2018-04-02T22:25:37.074Z,3.30
2018-04-02T22:28:07.289Z,3.20
2018-04-02T22:30:36.745Z,3.63
2018-04-02T22:33:06.192Z,3.83
2018-04-02T22:35:35.655Z,3.30
2018-04-02T22:38:05.987Z,5.07
2018-04-02T22:40:36.001Z,3.43
2018-04-02T22:43:07.233Z,4.10
2018-04-02T22:45:36.788Z,4.27
2018-04-02T22:48:05.737Z,4.00
2018-04-02T22:50:35.148Z,3.77
2018-04-02T22:53:04.604Z,3.70
2018-04-02T22:55:33.824Z,3.53
2018-04-02T22:58:03.291Z,3.50
2018-04-02T23:00:32.503Z,3.50
2018-04-02T23:03:01.724Z,3.90
2018-04-02T23:05:31.176Z,3.90
2018-04-02T23:08:01.712Z,3.57
2018-04-02T23:10:31.160Z,5.90
2018-04-02T23:13:00.608Z,3.63
2018-04-02T23:15:30.104Z,3.73
2018-04-02T23:17:59.640Z,4.83
2018-04-02T23:20:29.060Z,4.50
2018-04-02T23:22:58.526Z,4.00
2018-04-02T23:25:28.728Z,3.87
2018-04-02T23:27:58.197Z,4.07
2018-04-02T23:30:27.639Z,4.73
2018-04-02T23:32:57.097Z,6.93
2018-04-02T23:35:26.561Z,3.40
2018-04-02T23:37:56.000Z,4.00
2018-04-02T23:40:25.460Z,4.67
2018-04-02T23:42:54.647Z,4.93
2018-04-02T23:45:24.105Z,4.57
2018-04-02T23:47:53.554Z,3.90
2018-04-02T23:50:23.021Z,4.80
2018-04-02T23:52:52.248Z,4.50
2018-04-02T23:55:22.510Z,4.70
2018-04-02T23:57:51.972Z,5.40
